Time;durP1;ratioP1;P1;durP2;ratioP2;P2;SDS_P1;SDS_P2;PMS_P1;PMS_P2;Temp;Humidity;BMP_temperature;BMP_pressure;BME280_temperature;BME280_humidity;BME280_pressure;Samples;Min_cycle;Max_cycle;Signal;HPM_P1;HPM_P2
2022/08/24 06:27:22;;;;;;;19.25;17.20;;;22.10;75.40;;;;;;6191544;23;20025;-75
2022/08/24 06:29:53;;;;;;;19.73;17.63;;;22.10;75.40;;;;;;6218105;23;20024;-76
2022/08/24 06:32:19;;;;;;;21.90;16.42;;;22.20;75.40;;;;;;6218919;23;20301;-78
2022/08/24 06:34:45;;;;;;;23.40;18.10;;;22.20;75.40;;;;;;6218433;23;20060;-77
2022/08/24 06:37:11;;;;;;;18.90;16.10;;;22.20;75.30;;;;;;6192257;23;20017;-79
2022/08/24 06:39:37;;;;;;;18.65;15.13;;;22.30;75.40;;;;;;6191853;23;20091;-78
2022/08/24 06:42:04;;;;;;;14.60;12.98;;;22.30;75.30;;;;;;6166896;23;20417;-79
2022/08/24 06:44:31;;;;;;;18.52;13.90;;;22.40;75.30;;;;;;6191991;23;20052;-81
2022/08/24 06:46:57;;;;;;;15.80;13.05;;;22.40;75.20;;;;;;6166985;23;20429;-82
2022/08/24 06:49:23;;;;;;;18.55;13.20;;;22.40;75.10;;;;;;6167356;23;20309;-80
2022/08/24 06:52:05;;;;;;;20.85;13.35;;;22.40;75.00;;;;;;6218351;23;20316;-82
2022/08/24 06:54:44;;;;;;;15.73;12.63;;;22.50;75.00;;;;;;6216978;23;20055;-85
2022/08/24 06:57:16;;;;;;;17.50;11.75;;;22.50;75.00;;;;;;6218187;23;20290;-82
2022/08/24 06:59:42;;;;;;;15.38;10.88;;;22.60;75.00;;;;;;6216805;23;20013;-83
2022/08/24 07:02:09;;;;;;;14.45;10.82;;;22.50;75.00;;;;;;6218014;23;20024;-82
2022/08/24 07:04:34;;;;;;;15.95;10.70;;;22.50;74.90;;;;;;6218213;23;20009;-80
2022/08/24 07:07:03;;;;;;;13.70;10.43;;;22.60;74.90;;;;;;6191010;23;20019;-79
2022/08/24 07:09:31;;;;;;;11.05;9.20;;;22.60;75.00;;;;;;6191477;23;20023;-79
2022/08/24 07:11:57;;;;;;;14.50;7.85;;;22.60;74.90;;;;;;6218116;23;20024;-79
2022/08/24 07:14:22;;;;;;;14.05;8.13;;;22.60;74.90;;;;;;6191771;23;20021;-82
2022/08/24 07:16:48;;;;;;;19.25;9.75;;;22.60;75.00;;;;;;6167058;23;20020;-78
2022/08/24 07:19:14;;;;;;;17.42;8.50;;;22.60;75.20;;;;;;6218048;23;20020;-80
2022/08/24 07:21:41;;;;;;;16.75;8.60;;;22.60;75.30;;;;;;6167176;23;20078;-80
2022/08/24 07:24:07;;;;;;;14.80;8.30;;;22.70;75.40;;;;;;6167182;23;20017;-79
2022/08/24 07:26:32;;;;;;;14.43;7.28;;;22.70;75.30;;;;;;6218066;23;20023;-81
2022/08/24 07:29:05;;;;;;;9.95;6.45;;;22.70;75.30;;;;;;6249261;23;20008;-80
2022/08/24 07:31:32;;;;;;;11.52;6.95;;;22.70;75.30;;;;;;6221941;23;20016;-80
2022/08/24 07:33:58;;;;;;;7.47;5.85;;;22.70;75.20;;;;;;6248275;23;20320;-80
2022/08/24 07:36:23;;;;;;;11.27;5.57;;;22.70;75.20;;;;;;6197831;23;20016;-81
2022/08/24 07:38:53;;;;;;;6.93;5.70;;;22.80;75.20;;;;;;6221863;23;20026;-80
2022/08/24 07:41:21;;;;;;;10.85;5.85;;;22.80;75.10;;;;;;6247399;23;20027;-80
2022/08/24 07:43:48;;;;;;;8.45;5.15;;;22.80;75.70;;;;;;6221800;23;20020;-81
2022/08/24 07:46:14;;;;;;;7.43;4.38;;;22.80;75.10;;;;;;6247903;23;20486;-80
2022/08/24 07:48:40;;;;;;;6.20;4.07;;;22.80;75.00;;;;;;6222732;23;20354;-81
2022/08/24 07:51:10;;;;;;;6.18;4.07;;;22.90;75.00;;;;;;6248399;23;20052;-80
2022/08/24 07:53:36;;;;;;;5.13;3.65;;;22.90;75.00;;;;;;6248101;23;20020;-80
2022/08/24 07:56:02;;;;;;;6.05;3.72;;;22.90;74.90;;;;;;6248155;23;20019;-80
2022/08/24 07:58:28;;;;;;;9.57;4.65;;;22.90;74.90;;;;;;6247834;23;20102;-80
2022/08/24 08:00:54;;;;;;;6.00;4.05;;;22.90;74.60;;;;;;6248129;23;20101;-80
2022/08/24 08:03:20;;;;;;;6.07;3.78;;;22.90;74.60;;;;;;6247379;23;20020;-78
2022/08/24 08:05:48;;;;;;;8.57;4.53;;;22.90;74.60;;;;;;6248252;23;20084;-79
2022/08/24 08:08:14;;;;;;;6.18;4.10;;;22.90;74.60;;;;;;6244402;23;20012;-75
2022/08/24 08:10:42;;;;;;;4.60;4.07;;;23.00;74.70;;;;;;6243688;23;20016;-85
2022/08/24 08:13:08;;;;;;;9.75;4.85;;;23.10;74.80;;;;;;6220966;23;20371;-83
2022/08/24 08:15:34;;;;;;;11.35;5.25;;;23.00;74.90;;;;;;6219673;23;20012;-80
2022/08/24 08:18:00;;;;;;;7.88;4.38;;;23.00;75.10;;;;;;6220751;23;20016;-79
2022/08/24 08:20:25;;;;;;;11.73;6.22;;;23.00;75.00;;;;;;6247575;23;20012;-77
2022/08/24 08:25:38;;;;;;;18.60;6.85;;;23.00;75.40;;;;;;6247873;23;20016;-83
2022/08/24 08:28:05;;;;;;;19.15;6.28;;;23.10;75.90;;;;;;6247921;23;20432;-77
2022/08/24 08:30:32;;;;;;;22.63;7.32;;;23.10;76.30;;;;;;6248465;23;20074;-79
2022/08/24 08:32:58;;;;;;;19.23;7.80;;;23.10;76.70;;;;;;6249275;23;20023;-78
2022/08/24 08:35:25;;;;;;;19.85;6.10;;;23.20;76.90;;;;;;6249221;23;20344;-77
2022/08/24 08:37:51;;;;;;;15.82;5.88;;;23.20;77.60;;;;;;6249207;23;20023;-79
2022/08/24 08:40:47;;;;;;;20.35;6.70;;;23.20;77.00;;;;;;6223432;23;20207;-80
2022/08/24 08:43:47;;;;;;;24.13;7.05;;;23.20;77.10;;;;;;6223152;23;20420;-77
2022/08/24 08:46:36;;;;;;;17.92;6.53;;;23.20;76.70;;;;;;6223495;23;20016;-77
2022/08/24 08:49:08;;;;;;;13.45;6.97;;;23.30;76.90;;;;;;6249760;23;20020;-77
2022/08/24 08:51:49;;;;;;;19.70;8.68;;;23.30;77.00;;;;;;6223656;23;20023;-77
2022/08/24 08:54:43;;;;;;;19.08;8.27;;;23.30;77.00;;;;;;6223487;23;20028;-76
2022/08/24 08:57:45;;;;;;;16.35;8.55;;;23.30;77.00;;;;;;6250337;23;20081;-78
2022/08/24 09:00:16;;;;;;;17.77;7.72;;;23.30;77.00;;;;;;6248600;23;20016;-78
2022/08/24 09:03:06;;;;;;;17.70;7.13;;;23.30;77.10;;;;;;6249440;23;20020;-76
2022/08/24 09:05:52;;;;;;;16.42;8.30;;;23.30;77.20;;;;;;6249629;23;20016;-76
2022/08/24 09:08:39;;;;;;;15.55;7.68;;;23.30;77.10;;;;;;6249258;23;20012;-76
2022/08/24 09:11:42;;;;;;;15.82;7.82;;;23.30;77.20;;;;;;6249606;23;20019;-76
2022/08/24 09:14:45;;;;;;;18.38;7.93;;;23.30;77.10;;;;;;6223388;23;20028;-77
2022/08/24 09:17:27;;;;;;;12.95;8.07;;;23.30;77.00;;;;;;6249735;23;20016;-76
2022/08/24 09:20:33;;;;;;;16.13;7.43;;;23.30;76.90;;;;;;6222774;23;20020;-76
2022/08/24 09:23:01;;;;;;;25.15;8.32;;;23.40;77.00;;;;;;6249113;23;20408;-76
2022/08/24 09:25:39;;;;;;;18.83;7.53;;;23.40;77.10;;;;;;6249265;23;20016;-76
2022/08/24 09:28:34;;;;;;;18.92;7.25;;;23.40;77.10;;;;;;6249396;23;20048;-75
2022/08/24 09:31:19;;;;;;;29.70;7.85;;;23.40;76.90;;;;;;6223332;23;20078;-79
2022/08/24 09:34:07;;;;;;;15.05;7.57;;;23.40;76.90;;;;;;6223062;23;20030;-77
2022/08/24 09:36:52;;;;;;;21.30;7.55;;;23.40;77.00;;;;;;6248879;23;20085;-82
2022/08/24 09:40:04;;;;;;;13.63;7.20;;;23.40;77.00;;;;;;6222250;23;20024;-80
2022/08/24 09:42:51;;;;;;;17.25;7.97;;;23.40;77.10;;;;;;6202974;23;20090;-83
2022/08/24 09:45:54;;;;;;;16.88;8.38;;;23.40;77.00;;;;;;6198649;23;20379;-82
2022/08/24 09:49:20;;;;;;;23.27;8.30;;;23.40;76.90;;;;;;6197176;23;20016;-83
2022/08/24 09:51:57;;;;;;;16.20;7.00;;;23.40;76.80;;;;;;6102676;23;20073;-84
2022/08/24 09:54:55;;;;;;;15.43;5.65;;;23.50;77.00;;;;;;6197600;23;20019;-82
2022/08/24 10:01:15;;;;;;;21.88;6.95;;;23.50;77.20;;;;;;6171984;23;20020;-80
2022/08/24 10:08:50;;;;;;;14.93;5.57;;;23.60;77.10;;;;;;6071931;23;20315;-80
2022/08/24 10:15:31;;;;;;;13.32;4.18;;;23.60;76.70;;;;;;6102239;23;20018;-82
2022/08/24 10:29:54;;;;;;;10.20;3.05;;;23.60;76.50;;;;;;6097291;23;20025;-80
2022/08/24 10:32:28;;;;;;;13.70;4.75;;;23.70;76.70;;;;;;6174760;23;20020;-81
2022/08/24 10:35:03;;;;;;;10.77;3.00;;;23.70;77.40;;;;;;6222037;23;20421;-81
2022/08/24 10:37:43;;;;;;;8.57;2.88;;;23.70;77.60;;;;;;6196990;23;20363;-77
2022/08/24 10:40:37;;;;;;;9.52;3.05;;;23.80;77.50;;;;;;6248685;23;20016;-82
2022/08/24 10:43:32;;;;;;;;;;;23.80;77.10;;;;;;6223055;23;20008;-81
2022/08/24 10:46:01;;;;;;;6.10;2.67;;;23.80;77.20;;;;;;6196629;23;19911;-78
2022/08/24 10:48:29;;;;;;;13.77;3.17;;;23.80;77.40;;;;;;6248633;23;20167;-82
2022/08/24 10:51:17;;;;;;;11.05;3.30;;;23.80;77.20;;;;;;6248691;23;20016;-80
2022/08/24 10:53:48;;;;;;;7.22;2.53;;;23.80;77.00;;;;;;6221946;23;20062;-80
2022/08/24 10:56:18;;;;;;;5.30;2.50;;;23.80;76.90;;;;;;6198115;23;20338;-80
2022/08/24 10:58:49;;;;;;;7.38;2.53;;;23.80;76.80;;;;;;6222077;23;20039;-83
2022/08/24 11:01:36;;;;;;;8.88;2.15;;;23.80;76.70;;;;;;6222295;23;20035;-81
2022/08/24 11:04:09;;;;;;;5.53;2.10;;;23.80;76.70;;;;;;6196891;23;20027;-82
2022/08/24 11:06:43;;;;;;;5.57;2.15;;;23.80;76.60;;;;;;6221709;23;20488;-81
2022/08/24 11:09:13;;;;;;;2.20;1.45;;;23.80;76.50;;;;;;6248418;23;20012;-85
2022/08/24 11:11:45;;;;;;;3.40;1.95;;;23.80;76.50;;;;;;6222081;23;20009;-83
2022/08/24 11:14:28;;;;;;;7.35;1.92;;;23.80;76.40;;;;;;6246984;23;20313;-82
2022/08/24 11:17:31;;;;;;;7.03;2.47;;;23.80;76.30;;;;;;6221641;23;20039;-80
2022/08/24 11:19:58;;;;;;;6.50;2.58;;;23.80;76.30;;;;;;6221675;23;20101;-81
2022/08/24 11:22:39;;;;;;;2.92;2.00;;;23.80;76.30;;;;;;6196490;23;20016;-80
2022/08/24 11:25:24;;;;;;;3.17;1.70;;;23.80;76.20;;;;;;6247416;23;20016;-81
2022/08/24 11:27:56;;;;;;;5.82;1.92;;;23.80;76.10;;;;;;6248108;23;20020;-81
2022/08/24 11:30:28;;;;;;;3.80;1.92;;;23.80;76.00;;;;;;6246886;23;20008;-84
2022/08/24 11:33:03;;;;;;;4.28;1.67;;;23.80;76.00;;;;;;6196481;23;20008;-82
2022/08/24 11:35:32;;;;;;;2.13;1.52;;;23.80;75.90;;;;;;6223036;23;20369;-85
2022/08/24 11:38:14;;;;;;;4.30;1.83;;;23.80;75.90;;;;;;6219738;23;20016;-82
2022/08/24 11:40:43;;;;;;;4.13;1.77;;;23.80;75.80;;;;;;6220157;23;20016;-82
2022/08/24 11:43:17;;;;;;;2.13;1.45;;;23.80;75.80;;;;;;6247171;23;20491;-83
2022/08/24 11:45:51;;;;;;;4.07;1.60;;;23.80;75.70;;;;;;6221897;23;20024;-81
2022/08/24 11:48:24;;;;;;;4.97;1.83;;;23.80;75.70;;;;;;6222756;23;20471;-84
2022/08/24 11:51:02;;;;;;;2.72;1.60;;;23.80;75.60;;;;;;6222015;23;20016;-85
2022/08/24 11:54:12;;;;;;;6.72;1.70;;;23.80;75.50;;;;;;6221688;23;20020;-84
2022/08/24 11:56:56;;;;;;;1.42;1.33;;;23.80;75.50;;;;;;6213909;23;20368;-84
2022/08/24 11:59:47;;;;;;;2.65;1.48;;;23.80;75.40;;;;;;6221082;23;20112;-83
2022/08/24 12:02:57;;;;;;;1.77;1.27;;;23.80;75.40;;;;;;6221373;23;20092;-83
2022/08/24 12:05:36;;;;;;;1.98;1.40;;;23.80;75.30;;;;;;6206239;23;20069;-84
2022/08/24 12:08:23;;;;;;;2.00;1.50;;;23.80;75.30;;;;;;6247470;23;20308;-84
2022/08/24 12:11:03;;;;;;;2.50;1.85;;;23.80;75.20;;;;;;6247173;23;20048;-85
2022/08/24 12:13:51;;;;;;;2.42;1.55;;;23.80;75.20;;;;;;6247490;23;20016;-83
2022/08/24 12:16:34;;;;;;;2.97;1.70;;;23.80;75.10;;;;;;6195715;23;20020;-85
2022/08/24 12:19:17;;;;;;;5.93;1.58;;;23.80;75.10;;;;;;6247450;23;20439;-82
2022/08/24 12:21:48;;;;;;;3.53;1.48;;;23.80;75.00;;;;;;6248030;23;20016;-85
2022/08/24 12:24:39;;;;;;;2.85;1.65;;;23.80;75.20;;;;;;6246779;23;20012;-84
2022/08/24 12:27:16;;;;;;;1.88;1.30;;;23.80;75.40;;;;;;6196251;23;20089;-82
2022/08/24 12:30:00;;;;;;;2.08;1.33;;;23.80;75.60;;;;;;6246727;23;20077;-76
2022/08/24 12:32:29;;;;;;;5.90;1.73;;;23.80;75.70;;;;;;6245464;23;20009;-79
2022/08/24 12:35:09;;;;;;;9.65;3.00;;;23.80;75.70;;;;;;6195176;23;20020;-79
2022/08/24 12:38:14;;;;;;;7.00;2.60;;;23.80;76.30;;;;;;6219811;23;20020;-79
2022/08/24 12:40:48;;;;;;;4.00;1.73;;;23.80;76.50;;;;;;6146986;23;20421;-74
2022/08/24 12:43:24;;;;;;;10.48;2.30;;;23.90;76.70;;;;;;6247184;23;20015;-78
2022/08/24 12:45:50;;;;;;;9.80;2.22;;;23.90;77.30;;;;;;6247806;23;20023;-76
2022/08/24 12:48:22;;;;;;;5.93;2.00;;;24.00;78.00;;;;;;6247807;23;20016;-77
2022/08/24 12:51:01;;;;;;;8.63;2.47;;;24.00;77.80;;;;;;6248808;23;20020;-77
2022/08/24 12:53:43;;;;;;;9.07;2.65;;;24.10;77.80;;;;;;6246344;23;20020;-76
2022/08/24 12:56:46;;;;;;;7.00;2.20;;;24.10;78.40;;;;;;6222382;23;20020;-77
2022/08/24 12:59:27;;;;;;;6.65;2.20;;;24.20;79.00;;;;;;6248146;23;20020;-76
2022/08/24 13:02:10;;;;;;;8.05;2.38;;;24.20;78.10;;;;;;6247520;23;20031;-82
2022/08/24 13:04:48;;;;;;;8.30;2.30;;;24.20;79.00;;;;;;6247719;23;20016;-78
2022/08/24 13:07:23;;;;;;;6.03;2.42;;;24.30;78.90;;;;;;6247398;23;20016;-77
2022/08/24 13:09:52;;;;;;;8.00;2.22;;;24.30;79.20;;;;;;6247249;23;20413;-76
2022/08/24 13:12:44;;;;;;;15.05;3.20;;;24.30;78.80;;;;;;6246442;23;20142;-77
2022/08/24 13:15:27;;;;;;;11.93;2.28;;;24.30;79.30;;;;;;6220497;23;20012;-78
2022/08/24 13:17:57;;;;;;;5.97;2.00;;;24.40;79.00;;;;;;6247082;23;20020;-77
2022/08/24 13:20:27;;;;;;;5.70;1.75;;;24.40;78.60;;;;;;6249015;23;20016;-77
2022/08/24 13:22:59;;;;;;;11.98;1.92;;;24.40;78.40;;;;;;6222711;23;20501;-78
2022/08/24 13:25:37;;;;;;;8.35;2.13;;;24.50;78.20;;;;;;6222872;23;20099;-76
2022/08/24 13:28:08;;;;;;;7.30;2.08;;;24.50;78.00;;;;;;6223046;23;20024;-78
2022/08/24 13:30:54;;;;;;;6.00;1.70;;;24.50;77.90;;;;;;6249317;23;20016;-80
2022/08/24 13:33:32;;;;;;;6.88;1.70;;;24.50;77.40;;;;;;6222654;23;20027;-80
2022/08/24 13:36:09;;;;;;;11.80;1.90;;;24.50;77.10;;;;;;6222765;23;20073;-79
2022/08/24 13:38:35;;;;;;;7.80;1.73;;;24.50;77.50;;;;;;6249320;23;20019;-79
2022/08/24 13:41:14;;;;;;;6.43;1.55;;;24.50;76.90;;;;;;6249716;23;20313;-77
2022/08/24 13:44:02;;;;;;;6.45;1.30;;;24.50;76.70;;;;;;6222542;23;20066;-79
2022/08/24 13:46:43;;;;;;;4.20;1.77;;;24.60;77.00;;;;;;6249446;23;20016;-77
2022/08/24 13:49:47;;;;;;;5.22;1.50;;;24.50;76.70;;;;;;6248888;23;20012;-78
2022/08/24 13:52:25;;;;;;;5.57;1.40;;;24.60;76.60;;;;;;6222603;23;20016;-77
2022/08/24 13:54:59;;;;;;;4.75;1.38;;;24.50;76.40;;;;;;6249712;23;20024;-78
2022/08/24 13:57:40;;;;;;;4.30;1.20;;;24.60;76.30;;;;;;6222894;23;20052;-77
2022/08/24 14:00:31;;;;;;;9.80;1.58;;;24.60;76.40;;;;;;6249275;23;20095;-76
2022/08/24 14:03:00;;;;;;;3.90;1.40;;;24.60;76.30;;;;;;6248954;23;20448;-78
2022/08/24 14:05:25;;;;;;;6.60;1.20;;;24.60;75.70;;;;;;6222596;23;20409;-78
2022/08/24 14:08:28;;;;;;;5.53;1.60;;;24.60;75.70;;;;;;6249841;23;20023;-79
2022/08/24 14:11:30;;;;;;;8.82;3.33;;;24.60;75.50;;;;;;6250160;23;20020;-79
2022/08/24 14:14:11;;;;;;;6.35;3.25;;;24.60;75.80;;;;;;6249565;23;20020;-78
2022/08/24 14:19:53;;;;;;;8.52;5.53;;;24.60;76.20;;;;;;6249038;23;20354;-78
2022/08/24 14:22:32;;;;;;;10.38;6.43;;;24.60;76.40;;;;;;6249328;23;20095;-78
2022/08/24 14:25:13;;;;;;;11.63;5.90;;;24.60;76.60;;;;;;6248395;23;20417;-78
2022/08/24 14:27:43;;;;;;;10.63;5.93;;;24.60;76.70;;;;;;6249227;23;20344;-79
2022/08/24 14:30:18;;;;;;;7.53;4.68;;;24.60;76.80;;;;;;6223067;23;20320;-78
2022/08/24 14:32:58;;;;;;;10.07;7.15;;;24.60;76.70;;;;;;6248743;23;20020;-78
2022/08/24 14:35:32;;;;;;;8.40;6.22;;;24.60;77.10;;;;;;6222545;23;20412;-80
2022/08/24 14:38:21;;;;;;;12.93;7.85;;;24.60;77.20;;;;;;6249056;23;20012;-79
2022/08/24 14:41:14;;;;;;;9.40;6.07;;;24.60;77.30;;;;;;6196744;23;20020;-76
2022/08/24 14:44:05;;;;;;;11.35;8.38;;;24.60;77.40;;;;;;6248286;23;20405;-77
2022/08/24 14:47:02;;;;;;;10.35;8.20;;;24.60;77.40;;;;;;6221958;23;20475;-76
2022/08/24 14:50:02;;;;;;;9.32;7.28;;;24.60;77.50;;;;;;6221850;23;20020;-78
2022/08/24 14:52:47;;;;;;;9.05;8.07;;;24.60;77.70;;;;;;6248837;23;20016;-79
2022/08/24 14:55:46;;;;;;;9.80;8.80;;;24.60;77.60;;;;;;6222308;23;20031;-82
2022/08/24 14:58:24;;;;;;;10.50;7.80;;;24.60;77.80;;;;;;6248708;23;20432;-77
2022/08/24 15:00:56;;;;;;;8.57;7.38;;;24.70;77.90;;;;;;6222342;23;20028;-77
2022/08/24 15:03:45;;;;;;;9.32;8.43;;;24.70;77.90;;;;;;6248496;23;20012;-77
2022/08/24 15:06:34;;;;;;;9.70;8.73;;;24.60;77.80;;;;;;6248344;23;20016;-78
2022/08/24 15:09:10;;;;;;;7.80;7.18;;;24.70;77.80;;;;;;6231804;23;20027;-78
2022/08/24 15:11:39;;;;;;;5.88;5.07;;;24.60;77.60;;;;;;6248847;23;20371;-78
2022/08/24 15:14:10;;;;;;;6.70;6.10;;;24.70;77.60;;;;;;6248530;23;20016;-78
2022/08/24 15:16:49;;;;;;;9.00;8.00;;;24.70;77.60;;;;;;6248384;23;20275;-79
2022/08/24 15:19:50;;;;;;;9.25;8.35;;;24.70;77.80;;;;;;6248640;23;20091;-78
2022/08/24 15:22:34;;;;;;;9.80;8.90;;;24.70;77.80;;;;;;6221984;23;20012;-77
2022/08/24 15:25:12;;;;;;;9.65;8.75;;;24.70;78.20;;;;;;6248849;23;20077;-79
2022/08/24 15:27:54;;;;;;;12.88;8.88;;;24.80;78.00;;;;;;6222185;23;20109;-81
2022/08/24 15:30:30;;;;;;;11.45;10.35;;;24.80;78.10;;;;;;6221265;23;20420;-78
2022/08/24 15:33:17;;;;;;;12.02;10.10;;;24.80;78.40;;;;;;6248977;23;20016;-78
2022/08/24 15:35:46;;;;;;;14.20;11.50;;;24.80;78.40;;;;;;6222598;23;20046;-80
2022/08/24 15:38:23;;;;;;;17.58;11.55;;;24.90;78.20;;;;;;6248239;23;20012;-78
2022/08/24 15:41:11;;;;;;;13.85;10.25;;;24.80;77.90;;;;;;6248501;23;20016;-77
2022/08/24 15:44:01;;;;;;;12.50;9.70;;;24.90;77.80;;;;;;6196619;23;20434;-77
2022/08/24 15:46:35;;;;;;;16.23;8.63;;;24.80;77.80;;;;;;6221599;23;20020;-77
2022/08/24 15:49:16;;;;;;;11.40;6.45;;;24.80;77.80;;;;;;6247060;23;20012;-78
2022/08/24 15:51:42;;;;;;;13.90;6.15;;;24.80;77.50;;;;;;6247999;23;20012;-77
2022/08/24 15:54:24;;;;;;;18.27;7.70;;;24.80;77.80;;;;;;6247794;23;20018;-76
2022/08/24 15:56:57;;;;;;;18.40;7.05;;;24.80;78.00;;;;;;6248335;23;20078;-76
2022/08/24 15:59:30;;;;;;;21.35;6.93;;;24.80;78.30;;;;;;6221927;23;20401;-76
2022/08/24 16:02:27;;;;;;;22.58;7.65;;;24.80;78.50;;;;;;6248175;23;20051;-77
2022/08/24 16:05:20;;;;;;;18.15;7.18;;;24.80;79.50;;;;;;6236365;23;20016;-77
2022/08/24 16:08:01;;;;;;;19.38;7.07;;;24.80;80.20;;;;;;6221224;23;20023;-78
2022/08/24 16:10:53;;;;;;;20.67;6.22;;;24.80;80.20;;;;;;6221358;23;20078;-79
2022/08/24 16:13:32;;;;;;;9.52;5.13;;;24.80;80.10;;;;;;6247944;23;20077;-80
2022/08/24 16:16:02;;;;;;;13.50;6.22;;;24.70;79.40;;;;;;6248164;23;20020;-78
2022/08/24 16:18:52;;;;;;;18.15;5.55;;;24.80;79.70;;;;;;6221828;23;20024;-73
2022/08/24 16:21:28;;;;;;;10.43;5.20;;;24.80;79.90;;;;;;6222184;23;20338;-77
2022/08/24 16:24:21;;;;;;;9.13;5.63;;;24.80;79.20;;;;;;6247278;23;20020;-82
2022/08/24 16:26:47;;;;;;;17.85;6.50;;;24.80;78.80;;;;;;6205094;23;20062;-77
2022/08/24 16:29:47;;;;;;;11.52;6.70;;;24.80;79.10;;;;;;6221138;23;20021;-77
2022/08/24 16:32:23;;;;;;;16.23;6.10;;;24.90;80.60;;;;;;6247849;23;20023;-75
2022/08/24 16:35:13;;;;;;;14.32;6.07;;;24.90;80.80;;;;;;6248379;23;20016;-77
2022/08/24 16:37:39;;;;;;;12.57;5.45;;;25.00;79.80;;;;;;6229849;23;20108;-76
2022/08/24 16:40:07;;;;;;;10.73;5.15;;;25.00;79.80;;;;;;6248265;23;20016;-77
2022/08/24 16:42:33;;;;;;;10.20;5.72;;;25.00;79.50;;;;;;6247852;23;20085;-77
2022/08/24 16:44:59;;;;;;;7.25;5.78;;;25.00;78.80;;;;;;6247516;23;20456;-77
2022/08/24 16:47:27;;;;;;;9.30;6.30;;;25.00;77.80;;;;;;6247763;23;20016;-77
2022/08/24 16:49:53;;;;;;;8.68;6.43;;;25.00;77.90;;;;;;6247880;23;20283;-77
2022/08/24 16:52:19;;;;;;;6.93;5.53;;;24.90;77.50;;;;;;6249283;23;20020;-79
2022/08/24 16:54:46;;;;;;;9.48;5.60;;;24.90;77.10;;;;;;6250430;23;20024;-76
2022/08/24 16:57:19;;;;;;;7.22;6.00;;;24.90;77.40;;;;;;6249759;23;20420;-78
2022/08/24 16:59:49;;;;;;;8.77;6.82;;;24.90;77.00;;;;;;6249879;23;20023;-78
2022/08/24 17:02:17;;;;;;;10.00;7.20;;;24.90;76.70;;;;;;6223940;23;20017;-78
2022/08/24 17:20:15;;;;;;;6.78;5.15;;;24.80;76.80;;;;;;6198102;22;20036;-75
2022/08/24 17:22:41;;;;;;;7.35;5.78;;;24.80;76.70;;;;;;6219134;23;20447;-74
2022/08/24 17:25:07;;;;;;;7.25;5.53;;;24.80;76.40;;;;;;6218872;23;20008;-75
2022/08/24 18:15:00;;;;;;;15.48;13.88;;;24.60;75.30;;;;;;6180479;22;20032;-72
2022/08/24 18:17:39;;;;;;;15.05;13.70;;;24.60;75.50;;;;;;6218044;23;20025;-71
2022/08/24 18:20:11;;;;;;;15.40;13.90;;;24.60;75.50;;;;;;6218530;23;20091;-73
2022/08/24 18:22:43;;;;;;;18.05;14.13;;;24.50;75.30;;;;;;6219091;23;20348;-73
2022/08/24 18:25:14;;;;;;;15.52;13.85;;;24.50;75.30;;;;;;6217707;23;20099;-72
2022/08/24 18:27:41;;;;;;;15.85;14.25;;;24.50;75.40;;;;;;6217712;23;20023;-72
2022/08/24 18:58:02;;;;;;;12.43;8.23;;;24.20;75.70;;;;;;6166554;23;20395;-74
2022/08/24 19:00:27;;;;;;;9.43;8.55;;;24.20;75.70;;;;;;6217301;23;20102;-73
2022/08/24 19:02:55;;;;;;;9.60;8.35;;;24.10;75.70;;;;;;6218156;23;20020;-74
2022/08/24 19:05:23;;;;;;;9.90;7.95;;;24.10;75.70;;;;;;6217875;23;20020;-74
2022/08/24 19:34:08;;;;;;;7.38;6.40;;;24.20;75.30;;;;;;6180585;23;20024;-72
2022/08/24 19:36:34;;;;;;;8.10;7.30;;;24.10;75.40;;;;;;6187648;23;20048;-76
2022/08/24 19:39:00;;;;;;;9.20;7.10;;;24.10;75.60;;;;;;6187629;23;20013;-72
2022/08/24 19:41:26;;;;;;;8.80;7.93;;;24.00;75.60;;;;;;6187611;23;20080;-73
2022/08/24 19:46:39;;;;;;;9.45;8.52;;;24.00;75.80;;;;;;6161398;23;20025;-73
2022/08/24 19:49:06;;;;;;;8.55;7.80;;;24.00;75.90;;;;;;6187222;23;20439;-72
2022/08/24 19:51:32;;;;;;;10.38;8.65;;;24.00;75.80;;;;;;6187182;23;20410;-73
2022/08/24 19:53:58;;;;;;;10.25;8.60;;;24.00;75.80;;;;;;6187713;23;20043;-74
2022/08/24 19:56:24;;;;;;;7.93;7.13;;;24.00;75.80;;;;;;6187501;23;20023;-77
2022/08/24 19:58:51;;;;;;;9.57;8.40;;;24.00;75.70;;;;;;6187349;23;20092;-75
2022/08/24 20:01:21;;;;;;;10.80;9.55;;;24.00;75.70;;;;;;6187491;23;20039;-74
2022/08/24 20:03:46;;;;;;;9.88;9.00;;;24.00;75.60;;;;;;6187682;23;20263;-74
2022/08/24 20:06:13;;;;;;;10.90;8.60;;;24.10;75.60;;;;;;6187459;23;20021;-74
2022/08/24 20:08:39;;;;;;;10.10;9.07;;;24.00;75.60;;;;;;6187033;23;20028;-74
2022/08/24 20:11:07;;;;;;;10.27;9.20;;;24.00;75.60;;;;;;6187482;23;20118;-75
2022/08/24 20:13:33;;;;;;;10.20;8.65;;;24.00;75.40;;;;;;6186835;23;20021;-72
2022/08/24 20:15:59;;;;;;;9.32;8.52;;;24.00;75.30;;;;;;6187273;23;20017;-73
2022/08/24 20:18:31;;;;;;;10.48;9.52;;;24.10;75.40;;;;;;6187337;23;20017;-77
2022/08/24 20:20:57;;;;;;;10.38;9.07;;;24.10;75.40;;;;;;6187380;23;20318;-75
2022/08/24 20:23:23;;;;;;;12.05;10.25;;;24.10;75.40;;;;;;6186883;23;20028;-76
2022/08/24 20:25:49;;;;;;;11.20;10.10;;;24.00;75.50;;;;;;6187574;23;20017;-74
2022/08/24 20:28:16;;;;;;;11.88;10.70;;;24.00;75.30;;;;;;6163430;23;20092;-75
2022/08/24 20:30:43;;;;;;;11.27;10.27;;;24.00;75.30;;;;;;6189185;23;20021;-75
2022/08/24 20:33:17;;;;;;;11.43;10.27;;;24.00;75.20;;;;;;6188926;23;20480;-75
2022/08/24 20:35:44;;;;;;;12.05;10.98;;;24.00;75.20;;;;;;6211670;23;20024;-76
2022/08/24 20:38:14;;;;;;;13.40;12.13;;;24.00;75.20;;;;;;6219352;23;20012;-74
2022/08/24 20:40:40;;;;;;;11.98;10.77;;;24.00;75.30;;;;;;6218849;23;20417;-74
2022/08/24 20:43:06;;;;;;;15.63;13.15;;;24.00;75.30;;;;;;6219379;23;20158;-76
2022/08/24 20:45:32;;;;;;;13.52;11.88;;;24.00;75.20;;;;;;6219366;23;20042;-74
2022/08/24 20:47:58;;;;;;;13.63;12.43;;;24.00;75.20;;;;;;6218866;23;20461;-76
2022/08/24 20:50:25;;;;;;;12.55;11.35;;;24.00;75.20;;;;;;6219248;23;20021;-75
2022/08/24 20:52:52;;;;;;;14.82;13.35;;;24.00;75.20;;;;;;6219293;23;20087;-75
2022/08/24 20:55:20;;;;;;;13.85;12.48;;;24.00;75.10;;;;;;6218712;23;20519;-76
2022/08/24 20:57:53;;;;;;;14.32;13.02;;;24.00;75.00;;;;;;6219229;23;20097;-76
2022/08/24 21:00:21;;;;;;;14.13;12.73;;;24.00;75.50;;;;;;6219158;23;20085;-74
2022/08/24 21:02:47;;;;;;;14.98;13.68;;;23.90;74.70;;;;;;6219316;23;20309;-75
2022/08/24 21:05:13;;;;;;;13.00;11.80;;;24.00;74.90;;;;;;6193092;23;20032;-75
2022/08/24 21:07:44;;;;;;;14.82;13.40;;;23.90;74.90;;;;;;6218613;23;20027;-75
2022/08/24 21:10:10;;;;;;;14.25;12.85;;;23.90;74.90;;;;;;6219010;23;20020;-74
2022/08/24 21:12:38;;;;;;;13.77;12.45;;;23.90;74.90;;;;;;6219000;23;20094;-76
2022/08/24 21:15:05;;;;;;;13.50;12.35;;;23.90;75.00;;;;;;6218716;23;20406;-75
2022/08/24 21:17:31;;;;;;;13.95;12.70;;;23.80;74.90;;;;;;6219451;23;20016;-76
2022/08/24 21:19:57;;;;;;;14.65;13.23;;;23.90;74.90;;;;;;6219109;23;20129;-75
2022/08/24 21:22:22;;;;;;;14.00;12.68;;;23.80;74.80;;;;;;6218820;23;20025;-74
2022/08/24 21:24:48;;;;;;;14.20;12.93;;;23.90;74.80;;;;;;6218386;23;20028;-73
2022/08/24 21:27:15;;;;;;;15.10;13.70;;;23.80;74.70;;;;;;6192557;23;20048;-76
2022/08/24 21:29:40;;;;;;;15.25;13.73;;;23.80;74.70;;;;;;6218781;23;20028;-76
2022/08/24 21:34:50;;;;;;;15.30;13.75;;;23.80;74.70;;;;;;6218407;23;20405;-75
2022/08/24 21:37:17;;;;;;;14.55;13.27;;;23.80;74.70;;;;;;6218286;23;20031;-75
2022/08/24 21:39:45;;;;;;;14.90;13.45;;;23.80;74.70;;;;;;6218678;23;20023;-74
2022/08/24 21:42:12;;;;;;;14.57;13.07;;;23.80;74.60;;;;;;6218828;23;20279;-74
